sensor_id;sensor_type;location;lat;lon;timestamp;P1;P2;P0
62599;PMS7003;48671;48.922;2.346;2023-06-14T00:02:00;14.25;14.25;10.25
62599;PMS7003;48671;48.922;2.346;2023-06-14T00:04:26;14.25;14.25;11.00
62599;PMS7003;48671;48.922;2.346;2023-06-14T00:06:51;16.25;15.50;11.00
62599;PMS7003;48671;48.922;2.346;2023-06-14T00:09:17;13.25;13.25;10.50
62599;PMS7003;48671;48.922;2.346;2023-06-14T00:11:43;14.75;14.75;11.00
62599;PMS7003;48671;48.922;2.346;2023-06-14T00:14:09;13.00;13.00;10.25
62599;PMS7003;48671;48.922;2.346;2023-06-14T00:16:35;15.25;15.25;11.25
62599;PMS7003;48671;48.922;2.346;2023-06-14T00:19:02;15.00;15.00;10.50
62599;PMS7003;48671;48.922;2.346;2023-06-14T00:21:30;16.00;16.00;12.00
62599;PMS7003;48671;48.922;2.346;2023-06-14T00:23:57;15.25;15.25;11.00
62599;PMS7003;48671;48.922;2.346;2023-06-14T00:26:23;17.00;15.50;11.00
62599;PMS7003;48671;48.922;2.346;2023-06-14T00:28:48;14.25;14.25;12.25
62599;PMS7003;48671;48.922;2.346;2023-06-14T00:31:14;14.50;14.50;11.75
62599;PMS7003;48671;48.922;2.346;2023-06-14T00:33:39;13.00;13.00;8.25
62599;PMS7003;48671;48.922;2.346;2023-06-14T00:36:05;14.00;14.00;10.50
62599;PMS7003;48671;48.922;2.346;2023-06-14T00:38:30;14.25;14.25;9.50
62599;PMS7003;48671;48.922;2.346;2023-06-14T00:40:55;18.00;18.00;14.00
62599;PMS7003;48671;48.922;2.346;2023-06-14T00:43:21;14.25;14.25;10.00
62599;PMS7003;48671;48.922;2.346;2023-06-14T00:45:46;14.25;14.25;11.25
62599;PMS7003;48671;48.922;2.346;2023-06-14T00:48:11;13.75;13.75;10.50
62599;PMS7003;48671;48.922;2.346;2023-06-14T00:50:38;15.00;15.00;11.25
62599;PMS7003;48671;48.922;2.346;2023-06-14T00:53:05;14.25;14.25;11.25
62599;PMS7003;48671;48.922;2.346;2023-06-14T00:55:31;14.75;14.75;11.50
62599;PMS7003;48671;48.922;2.346;2023-06-14T00:57:57;13.00;13.00;11.00
62599;PMS7003;48671;48.922;2.346;2023-06-14T01:00:23;14.25;14.25;12.25
62599;PMS7003;48671;48.922;2.346;2023-06-14T01:02:48;15.25;15.25;12.00
62599;PMS7003;48671;48.922;2.346;2023-06-14T01:05:17;15.00;15.00;11.50
62599;PMS7003;48671;48.922;2.346;2023-06-14T01:07:46;17.00;17.00;13.50
62599;PMS7003;48671;48.922;2.346;2023-06-14T01:13:08;15.00;15.00;12.00
62599;PMS7003;48671;48.922;2.346;2023-06-14T01:15:38;15.75;14.25;12.00
62599;PMS7003;48671;48.922;2.346;2023-06-14T01:18:04;15.25;15.25;11.75
62599;PMS7003;48671;48.922;2.346;2023-06-14T01:20:31;18.00;18.00;13.75
62599;PMS7003;48671;48.922;2.346;2023-06-14T01:22:58;15.75;15.75;12.75
62599;PMS7003;48671;48.922;2.346;2023-06-14T01:25:24;16.75;16.75;12.50
62599;PMS7003;48671;48.922;2.346;2023-06-14T01:27:52;18.50;18.50;14.75
62599;PMS7003;48671;48.922;2.346;2023-06-14T01:30:22;19.50;19.00;14.00
62599;PMS7003;48671;48.922;2.346;2023-06-14T01:32:50;15.50;15.50;12.00
62599;PMS7003;48671;48.922;2.346;2023-06-14T01:35:16;16.00;16.00;12.75
62599;PMS7003;48671;48.922;2.346;2023-06-14T01:37:42;14.50;14.50;11.00
62599;PMS7003;48671;48.922;2.346;2023-06-14T01:40:09;16.50;16.50;12.00
62599;PMS7003;48671;48.922;2.346;2023-06-14T01:42:35;15.00;15.00;11.00
62599;PMS7003;48671;48.922;2.346;2023-06-14T01:45:03;13.50;13.25;10.75
62599;PMS7003;48671;48.922;2.346;2023-06-14T01:47:31;14.00;14.00;10.75
62599;PMS7003;48671;48.922;2.346;2023-06-14T01:49:58;12.00;12.00;10.75
62599;PMS7003;48671;48.922;2.346;2023-06-14T01:52:23;12.00;12.00;10.00
62599;PMS7003;48671;48.922;2.346;2023-06-14T01:54:49;12.25;12.25;11.50
62599;PMS7003;48671;48.922;2.346;2023-06-14T01:57:15;15.75;15.75;11.50
62599;PMS7003;48671;48.922;2.346;2023-06-14T01:59:40;16.50;16.50;12.75
62599;PMS7003;48671;48.922;2.346;2023-06-14T02:02:06;17.00;17.00;13.50
62599;PMS7003;48671;48.922;2.346;2023-06-14T02:04:31;17.75;17.75;13.25
62599;PMS7003;48671;48.922;2.346;2023-06-14T02:06:56;17.50;17.50;13.50
62599;PMS7003;48671;48.922;2.346;2023-06-14T02:09:22;17.25;17.25;14.00
62599;PMS7003;48671;48.922;2.346;2023-06-14T02:11:48;19.25;19.00;13.75
62599;PMS7003;48671;48.922;2.346;2023-06-14T02:14:14;19.25;19.25;14.50
62599;PMS7003;48671;48.922;2.346;2023-06-14T02:16:39;13.75;13.75;11.50
62599;PMS7003;48671;48.922;2.346;2023-06-14T02:19:05;15.50;15.50;12.75
62599;PMS7003;48671;48.922;2.346;2023-06-14T02:21:30;19.25;19.25;14.00
62599;PMS7003;48671;48.922;2.346;2023-06-14T02:23:56;18.00;18.00;14.25
62599;PMS7003;48671;48.922;2.346;2023-06-14T02:26:21;19.25;18.00;12.75
62599;PMS7003;48671;48.922;2.346;2023-06-14T02:28:47;16.25;16.25;13.00
62599;PMS7003;48671;48.922;2.346;2023-06-14T02:31:13;18.75;18.25;14.00
62599;PMS7003;48671;48.922;2.346;2023-06-14T02:33:38;19.50;19.50;14.25
62599;PMS7003;48671;48.922;2.346;2023-06-14T02:36:04;19.50;19.50;14.50
62599;PMS7003;48671;48.922;2.346;2023-06-14T02:38:30;19.00;19.00;13.75
62599;PMS7003;48671;48.922;2.346;2023-06-14T02:40:55;18.25;18.00;13.75
62599;PMS7003;48671;48.922;2.346;2023-06-14T02:43:21;19.25;19.25;15.25
62599;PMS7003;48671;48.922;2.346;2023-06-14T02:45:46;17.25;17.25;14.00
62599;PMS7003;48671;48.922;2.346;2023-06-14T02:48:11;20.33;20.33;15.00
62599;PMS7003;48671;48.922;2.346;2023-06-14T02:50:36;15.50;15.50;11.75
62599;PMS7003;48671;48.922;2.346;2023-06-14T02:53:02;19.50;19.50;14.25
62599;PMS7003;48671;48.922;2.346;2023-06-14T02:55:27;17.50;17.50;13.25
62599;PMS7003;48671;48.922;2.346;2023-06-14T02:57:53;19.25;18.75;13.50
62599;PMS7003;48671;48.922;2.346;2023-06-14T03:00:18;18.00;17.75;13.25
62599;PMS7003;48671;48.922;2.346;2023-06-14T03:02:44;18.00;18.00;13.00
62599;PMS7003;48671;48.922;2.346;2023-06-14T03:05:10;19.50;19.50;14.50
62599;PMS7003;48671;48.922;2.346;2023-06-14T03:07:36;17.75;17.75;13.75
62599;PMS7003;48671;48.922;2.346;2023-06-14T03:10:07;20.75;20.50;14.25
62599;PMS7003;48671;48.922;2.346;2023-06-14T03:12:35;17.75;17.75;13.00
62599;PMS7003;48671;48.922;2.346;2023-06-14T03:15:01;20.00;20.00;13.25
62599;PMS7003;48671;48.922;2.346;2023-06-14T03:17:27;16.75;16.75;12.50
62599;PMS7003;48671;48.922;2.346;2023-06-14T03:19:54;18.50;18.50;13.75
62599;PMS7003;48671;48.922;2.346;2023-06-14T03:22:20;20.75;19.00;14.50
62599;PMS7003;48671;48.922;2.346;2023-06-14T03:24:46;15.75;15.75;12.00
62599;PMS7003;48671;48.922;2.346;2023-06-14T03:27:12;23.50;23.50;15.75
62599;PMS7003;48671;48.922;2.346;2023-06-14T03:29:39;19.00;19.00;13.75
62599;PMS7003;48671;48.922;2.346;2023-06-14T03:32:05;19.00;19.00;14.00
62599;PMS7003;48671;48.922;2.346;2023-06-14T03:34:30;18.50;18.50;14.00
62599;PMS7003;48671;48.922;2.346;2023-06-14T03:36:55;21.00;21.00;14.00
62599;PMS7003;48671;48.922;2.346;2023-06-14T03:39:21;16.50;16.50;12.75
62599;PMS7003;48671;48.922;2.346;2023-06-14T03:41:46;19.00;19.00;11.75
62599;PMS7003;48671;48.922;2.346;2023-06-14T03:44:13;22.25;21.50;15.75
62599;PMS7003;48671;48.922;2.346;2023-06-14T03:46:40;18.50;17.50;12.25
62599;PMS7003;48671;48.922;2.346;2023-06-14T03:49:06;21.75;21.75;14.00
62599;PMS7003;48671;48.922;2.346;2023-06-14T03:51:32;15.75;15.75;12.50
62599;PMS7003;48671;48.922;2.346;2023-06-14T03:53:59;22.00;21.50;14.00
62599;PMS7003;48671;48.922;2.346;2023-06-14T03:56:25;21.25;21.25;15.25
62599;PMS7003;48671;48.922;2.346;2023-06-14T03:58:50;43.67;34.33;23.33
62599;PMS7003;48671;48.922;2.346;2023-06-14T04:01:15;48.33;40.33;27.33
62599;PMS7003;48671;48.922;2.346;2023-06-14T04:03:41;17.00;17.00;14.00
62599;PMS7003;48671;48.922;2.346;2023-06-14T04:06:06;17.75;17.75;12.75
62599;PMS7003;48671;48.922;2.346;2023-06-14T04:08:32;17.25;17.25;14.00
62599;PMS7003;48671;48.922;2.346;2023-06-14T04:10:58;16.75;16.75;13.25
62599;PMS7003;48671;48.922;2.346;2023-06-14T04:13:23;21.00;21.00;14.50
62599;PMS7003;48671;48.922;2.346;2023-06-14T04:15:48;16.50;16.50;13.75
62599;PMS7003;48671;48.922;2.346;2023-06-14T04:18:14;15.75;15.75;12.00
62599;PMS7003;48671;48.922;2.346;2023-06-14T04:20:39;16.75;16.75;13.00
62599;PMS7003;48671;48.922;2.346;2023-06-14T04:23:15;18.00;18.00;13.50
62599;PMS7003;48671;48.922;2.346;2023-06-14T04:25:42;19.00;18.50;12.50
62599;PMS7003;48671;48.922;2.346;2023-06-14T04:28:09;18.75;17.75;12.75
62599;PMS7003;48671;48.922;2.346;2023-06-14T04:30:36;15.75;15.75;13.00
62599;PMS7003;48671;48.922;2.346;2023-06-14T04:33:03;19.00;19.00;14.00
62599;PMS7003;48671;48.922;2.346;2023-06-14T04:35:31;17.75;17.75;13.50
62599;PMS7003;48671;48.922;2.346;2023-06-14T04:37:57;16.25;16.25;12.75
62599;PMS7003;48671;48.922;2.346;2023-06-14T04:40:24;18.25;18.25;12.25
62599;PMS7003;48671;48.922;2.346;2023-06-14T04:42:49;15.50;15.50;11.75
62599;PMS7003;48671;48.922;2.346;2023-06-14T04:45:16;20.25;20.25;15.25
62599;PMS7003;48671;48.922;2.346;2023-06-14T04:47:41;24.75;24.75;18.25
62599;PMS7003;48671;48.922;2.346;2023-06-14T04:50:07;17.25;17.25;13.50
62599;PMS7003;48671;48.922;2.346;2023-06-14T04:52:33;22.00;21.00;16.00
62599;PMS7003;48671;48.922;2.346;2023-06-14T04:55:00;19.00;19.00;14.75
62599;PMS7003;48671;48.922;2.346;2023-06-14T04:57:26;19.00;18.00;13.25
62599;PMS7003;48671;48.922;2.346;2023-06-14T04:59:52;21.00;21.00;16.50
62599;PMS7003;48671;48.922;2.346;2023-06-14T05:02:20;19.25;19.25;15.75
62599;PMS7003;48671;48.922;2.346;2023-06-14T05:04:49;18.00;18.00;14.00
62599;PMS7003;48671;48.922;2.346;2023-06-14T05:07:15;20.00;20.00;16.00
62599;PMS7003;48671;48.922;2.346;2023-06-14T05:09:40;21.50;21.00;15.75
62599;PMS7003;48671;48.922;2.346;2023-06-14T05:12:06;19.50;19.50;15.25
62599;PMS7003;48671;48.922;2.346;2023-06-14T05:14:34;20.50;20.50;15.00
62599;PMS7003;48671;48.922;2.346;2023-06-14T05:17:00;13.75;13.75;11.00
62599;PMS7003;48671;48.922;2.346;2023-06-14T05:19:25;21.75;21.75;15.75
62599;PMS7003;48671;48.922;2.346;2023-06-14T05:21:51;19.00;19.00;15.00
62599;PMS7003;48671;48.922;2.346;2023-06-14T05:24:18;20.75;20.75;14.75
62599;PMS7003;48671;48.922;2.346;2023-06-14T05:26:43;17.00;17.00;12.25
62599;PMS7003;48671;48.922;2.346;2023-06-14T05:29:09;19.50;19.50;14.75
62599;PMS7003;48671;48.922;2.346;2023-06-14T05:31:34;21.50;20.75;15.50
62599;PMS7003;48671;48.922;2.346;2023-06-14T05:33:59;20.00;18.75;14.25
62599;PMS7003;48671;48.922;2.346;2023-06-14T05:36:25;21.25;21.25;17.25
62599;PMS7003;48671;48.922;2.346;2023-06-14T05:38:50;23.50;23.50;16.00
62599;PMS7003;48671;48.922;2.346;2023-06-14T05:41:16;19.75;18.25;13.50
62599;PMS7003;48671;48.922;2.346;2023-06-14T05:43:41;24.75;23.75;16.75
62599;PMS7003;48671;48.922;2.346;2023-06-14T05:46:07;24.75;23.50;16.00
62599;PMS7003;48671;48.922;2.346;2023-06-14T05:48:32;21.50;21.50;15.75
62599;PMS7003;48671;48.922;2.346;2023-06-14T05:50:58;22.25;22.25;17.00
62599;PMS7003;48671;48.922;2.346;2023-06-14T05:53:23;22.00;22.00;17.25
62599;PMS7003;48671;48.922;2.346;2023-06-14T05:55:49;24.00;24.00;18.25
62599;PMS7003;48671;48.922;2.346;2023-06-14T05:58:18;22.75;22.75;17.25
62599;PMS7003;48671;48.922;2.346;2023-06-14T06:00:43;23.50;21.50;15.25
62599;PMS7003;48671;48.922;2.346;2023-06-14T06:03:09;22.75;20.00;14.00
62599;PMS7003;48671;48.922;2.346;2023-06-14T06:05:36;23.50;21.75;15.00
62599;PMS7003;48671;48.922;2.346;2023-06-14T06:08:01;21.50;19.50;14.50
62599;PMS7003;48671;48.922;2.346;2023-06-14T06:10:27;19.75;19.75;15.75
62599;PMS7003;48671;48.922;2.346;2023-06-14T06:12:52;20.00;20.00;13.00
62599;PMS7003;48671;48.922;2.346;2023-06-14T06:15:19;22.00;22.00;15.00
62599;PMS7003;48671;48.922;2.346;2023-06-14T06:17:45;21.00;21.00;15.25
62599;PMS7003;48671;48.922;2.346;2023-06-14T06:20:10;20.00;19.50;14.50
62599;PMS7003;48671;48.922;2.346;2023-06-14T06:22:36;19.75;19.75;14.00
62599;PMS7003;48671;48.922;2.346;2023-06-14T06:25:02;21.50;20.75;15.75
62599;PMS7003;48671;48.922;2.346;2023-06-14T06:27:27;20.25;20.25;16.75
62599;PMS7003;48671;48.922;2.346;2023-06-14T06:29:53;19.00;19.00;13.50
62599;PMS7003;48671;48.922;2.346;2023-06-14T06:32:18;19.00;19.00;13.00
62599;PMS7003;48671;48.922;2.346;2023-06-14T06:34:44;19.25;19.25;13.25
62599;PMS7003;48671;48.922;2.346;2023-06-14T06:37:09;23.00;21.00;14.25
62599;PMS7003;48671;48.922;2.346;2023-06-14T06:39:35;18.00;17.75;13.00
62599;PMS7003;48671;48.922;2.346;2023-06-14T06:42:00;19.00;19.00;14.00
62599;PMS7003;48671;48.922;2.346;2023-06-14T06:44:26;20.33;18.67;15.00
62599;PMS7003;48671;48.922;2.346;2023-06-14T06:46:51;20.25;18.50;13.75
62599;PMS7003;48671;48.922;2.346;2023-06-14T06:49:17;9.00;9.00;3.75
62599;PMS7003;48671;48.922;2.346;2023-06-14T06:51:42;21.00;21.00;16.50
62599;PMS7003;48671;48.922;2.346;2023-06-14T06:54:08;16.75;16.00;11.75
62599;PMS7003;48671;48.922;2.346;2023-06-14T06:56:34;17.00;17.00;14.00
62599;PMS7003;48671;48.922;2.346;2023-06-14T06:59:00;19.25;17.75;11.75
62599;PMS7003;48671;48.922;2.346;2023-06-14T07:01:25;18.75;18.75;12.75
62599;PMS7003;48671;48.922;2.346;2023-06-14T07:03:53;18.00;18.00;13.00
62599;PMS7003;48671;48.922;2.346;2023-06-14T07:06:19;17.25;17.25;13.25
62599;PMS7003;48671;48.922;2.346;2023-06-14T07:08:45;8.75;8.75;8.50
62599;PMS7003;48671;48.922;2.346;2023-06-14T07:11:11;17.25;17.25;12.75
62599;PMS7003;48671;48.922;2.346;2023-06-14T07:13:36;17.50;17.50;13.25
62599;PMS7003;48671;48.922;2.346;2023-06-14T07:16:03;14.50;14.50;11.50
62599;PMS7003;48671;48.922;2.346;2023-06-14T07:18:29;24.00;24.00;16.75
62599;PMS7003;48671;48.922;2.346;2023-06-14T07:20:55;18.50;18.50;14.00
62599;PMS7003;48671;48.922;2.346;2023-06-14T07:23:21;17.75;17.75;12.00
62599;PMS7003;48671;48.922;2.346;2023-06-14T07:25:47;20.75;20.75;14.25
62599;PMS7003;48671;48.922;2.346;2023-06-14T07:28:12;17.00;15.25;11.50
62599;PMS7003;48671;48.922;2.346;2023-06-14T07:30:38;14.75;14.50;12.00
62599;PMS7003;48671;48.922;2.346;2023-06-14T07:33:03;17.00;17.00;13.50
62599;PMS7003;48671;48.922;2.346;2023-06-14T07:35:28;15.25;15.25;12.75
62599;PMS7003;48671;48.922;2.346;2023-06-14T07:37:53;18.00;18.00;12.75
62599;PMS7003;48671;48.922;2.346;2023-06-14T07:40:19;17.25;17.25;14.50
62599;PMS7003;48671;48.922;2.346;2023-06-14T07:42:44;14.50;14.50;12.00
62599;PMS7003;48671;48.922;2.346;2023-06-14T07:45:11;16.50;16.50;11.75
62599;PMS7003;48671;48.922;2.346;2023-06-14T07:47:38;19.00;18.75;13.25
62599;PMS7003;48671;48.922;2.346;2023-06-14T07:50:03;16.25;16.25;12.25
62599;PMS7003;48671;48.922;2.346;2023-06-14T07:52:29;19.25;18.25;14.00
62599;PMS7003;48671;48.922;2.346;2023-06-14T07:54:55;20.00;20.00;16.00
62599;PMS7003;48671;48.922;2.346;2023-06-14T07:57:21;18.75;18.75;14.50
62599;PMS7003;48671;48.922;2.346;2023-06-14T07:59:47;23.25;22.25;14.75
62599;PMS7003;48671;48.922;2.346;2023-06-14T08:02:12;17.75;17.25;13.00
62599;PMS7003;48671;48.922;2.346;2023-06-14T08:04:38;20.00;19.75;14.25
62599;PMS7003;48671;48.922;2.346;2023-06-14T08:07:03;20.00;18.50;14.75
62599;PMS7003;48671;48.922;2.346;2023-06-14T08:09:29;19.00;19.00;14.50
62599;PMS7003;48671;48.922;2.346;2023-06-14T08:11:55;17.25;17.00;12.50
62599;PMS7003;48671;48.922;2.346;2023-06-14T08:14:20;20.75;19.50;13.50
62599;PMS7003;48671;48.922;2.346;2023-06-14T08:16:45;16.50;16.50;12.50
62599;PMS7003;48671;48.922;2.346;2023-06-14T08:19:11;20.00;20.00;14.75
62599;PMS7003;48671;48.922;2.346;2023-06-14T08:21:36;21.75;21.25;14.25
62599;PMS7003;48671;48.922;2.346;2023-06-14T08:24:02;24.75;21.50;12.75
62599;PMS7003;48671;48.922;2.346;2023-06-14T08:26:28;20.75;20.75;15.25
62599;PMS7003;48671;48.922;2.346;2023-06-14T08:28:54;14.50;14.50;10.00
62599;PMS7003;48671;48.922;2.346;2023-06-14T08:31:20;19.00;18.25;13.75
62599;PMS7003;48671;48.922;2.346;2023-06-14T08:33:46;16.25;16.25;12.50
62599;PMS7003;48671;48.922;2.346;2023-06-14T08:36:11;21.25;18.75;13.75
62599;PMS7003;48671;48.922;2.346;2023-06-14T08:38:37;16.00;15.75;12.25
62599;PMS7003;48671;48.922;2.346;2023-06-14T08:41:03;16.25;15.25;12.25
62599;PMS7003;48671;48.922;2.346;2023-06-14T08:43:31;15.25;15.25;12.00
62599;PMS7003;48671;48.922;2.346;2023-06-14T08:46:03;16.00;16.00;10.75
62599;PMS7003;48671;48.922;2.346;2023-06-14T08:48:31;15.25;15.00;12.25
62599;PMS7003;48671;48.922;2.346;2023-06-14T08:50:59;15.25;15.25;12.00
62599;PMS7003;48671;48.922;2.346;2023-06-14T08:53:31;15.75;15.75;11.25
62599;PMS7003;48671;48.922;2.346;2023-06-14T08:55:59;12.75;12.75;10.25
62599;PMS7003;48671;48.922;2.346;2023-06-14T08:58:29;15.25;14.00;11.00
62599;PMS7003;48671;48.922;2.346;2023-06-14T09:00:56;13.25;13.25;11.00
62599;PMS7003;48671;48.922;2.346;2023-06-14T09:03:22;13.50;13.50;10.25
62599;PMS7003;48671;48.922;2.346;2023-06-14T09:05:55;14.00;14.00;10.75
62599;PMS7003;48671;48.922;2.346;2023-06-14T09:08:21;15.50;15.50;11.75
62599;PMS7003;48671;48.922;2.346;2023-06-14T09:10:48;14.25;14.25;10.75
62599;PMS7003;48671;48.922;2.346;2023-06-14T09:13:13;13.00;13.00;10.50
62599;PMS7003;48671;48.922;2.346;2023-06-14T09:15:39;15.00;14.25;10.25
62599;PMS7003;48671;48.922;2.346;2023-06-14T09:18:04;14.00;14.00;10.00
62599;PMS7003;48671;48.922;2.346;2023-06-14T09:20:31;11.00;11.00;9.00
62599;PMS7003;48671;48.922;2.346;2023-06-14T09:22:57;12.00;12.00;10.00
62599;PMS7003;48671;48.922;2.346;2023-06-14T09:25:23;11.00;11.00;8.50
62599;PMS7003;48671;48.922;2.346;2023-06-14T09:27:51;13.00;13.00;9.75
62599;PMS7003;48671;48.922;2.346;2023-06-14T09:30:19;19.00;17.25;11.75
62599;PMS7003;48671;48.922;2.346;2023-06-14T09:32:45;14.00;14.00;10.00
62599;PMS7003;48671;48.922;2.346;2023-06-14T09:35:11;17.50;17.50;12.50
62599;PMS7003;48671;48.922;2.346;2023-06-14T09:37:36;18.75;16.00;10.25
62599;PMS7003;48671;48.922;2.346;2023-06-14T09:40:05;16.25;14.75;10.25
62599;PMS7003;48671;48.922;2.346;2023-06-14T09:42:32;12.50;12.50;9.25
62599;PMS7003;48671;48.922;2.346;2023-06-14T09:45:00;11.75;11.75;9.00
62599;PMS7003;48671;48.922;2.346;2023-06-14T09:47:27;12.50;12.50;8.75
62599;PMS7003;48671;48.922;2.346;2023-06-14T09:49:53;13.75;13.75;10.00
62599;PMS7003;48671;48.922;2.346;2023-06-14T09:52:20;17.50;17.50;13.50
62599;PMS7003;48671;48.922;2.346;2023-06-14T09:54:47;13.50;13.50;10.00
62599;PMS7003;48671;48.922;2.346;2023-06-14T09:57:20;11.75;11.75;8.00
62599;PMS7003;48671;48.922;2.346;2023-06-14T09:59:47;12.50;12.00;8.75
62599;PMS7003;48671;48.922;2.346;2023-06-14T10:02:24;11.75;11.75;8.75
62599;PMS7003;48671;48.922;2.346;2023-06-14T10:05:12;12.75;12.75;10.00
62599;PMS7003;48671;48.922;2.346;2023-06-14T10:10:24;13.00;13.00;10.00
62599;PMS7003;48671;48.922;2.346;2023-06-14T10:12:50;13.25;13.25;10.00
62599;PMS7003;48671;48.922;2.346;2023-06-14T10:15:20;11.50;11.50;8.50
62599;PMS7003;48671;48.922;2.346;2023-06-14T10:17:57;10.75;10.75;8.00
62599;PMS7003;48671;48.922;2.346;2023-06-14T10:20:35;12.00;12.00;9.75
62599;PMS7003;48671;48.922;2.346;2023-06-14T10:25:38;22.50;19.75;11.50
62599;PMS7003;48671;48.922;2.346;2023-06-14T10:28:20;10.75;10.75;8.00
62599;PMS7003;48671;48.922;2.346;2023-06-14T10:31:02;12.25;12.25;10.00
62599;PMS7003;48671;48.922;2.346;2023-06-14T10:33:32;13.50;13.50;12.00
62599;PMS7003;48671;48.922;2.346;2023-06-14T10:36:23;14.00;14.00;11.25
62599;PMS7003;48671;48.922;2.346;2023-06-14T10:39:14;10.00;10.00;8.50
62599;PMS7003;48671;48.922;2.346;2023-06-14T10:41:42;12.00;12.00;9.00
62599;PMS7003;48671;48.922;2.346;2023-06-14T10:46:48;11.00;11.00;9.00
62599;PMS7003;48671;48.922;2.346;2023-06-14T10:49:17;11.00;11.00;9.50
62599;PMS7003;48671;48.922;2.346;2023-06-14T10:51:55;15.00;15.00;11.00
62599;PMS7003;48671;48.922;2.346;2023-06-14T10:54:23;11.75;11.75;9.00
62599;PMS7003;48671;48.922;2.346;2023-06-14T10:56:50;11.00;11.00;8.00
62599;PMS7003;48671;48.922;2.346;2023-06-14T10:59:18;11.00;11.00;9.50
62599;PMS7003;48671;48.922;2.346;2023-06-14T11:01:58;11.75;11.75;10.00
62599;PMS7003;48671;48.922;2.346;2023-06-14T11:04:48;12.25;12.25;9.00
62599;PMS7003;48671;48.922;2.346;2023-06-14T11:13:02;13.75;13.75;11.00
62599;PMS7003;48671;48.922;2.346;2023-06-14T11:15:28;13.50;13.50;10.75
62599;PMS7003;48671;48.922;2.346;2023-06-14T11:18:06;11.00;11.00;9.00
62599;PMS7003;48671;48.922;2.346;2023-06-14T11:20:34;10.25;10.25;9.25
62599;PMS7003;48671;48.922;2.346;2023-06-14T11:23:01;13.75;13.75;10.25
62599;PMS7003;48671;48.922;2.346;2023-06-14T11:25:27;12.50;12.50;10.00
62599;PMS7003;48671;48.922;2.346;2023-06-14T11:27:53;12.50;12.50;10.00
62599;PMS7003;48671;48.922;2.346;2023-06-14T11:30:19;12.00;12.00;9.75
62599;PMS7003;48671;48.922;2.346;2023-06-14T11:32:47;14.25;14.25;10.50
62599;PMS7003;48671;48.922;2.346;2023-06-14T11:35:13;13.25;13.25;11.25
62599;PMS7003;48671;48.922;2.346;2023-06-14T11:37:39;13.50;12.25;10.00
62599;PMS7003;48671;48.922;2.346;2023-06-14T11:40:06;19.50;19.50;13.00
62599;PMS7003;48671;48.922;2.346;2023-06-14T11:42:35;14.75;14.00;9.25
62599;PMS7003;48671;48.922;2.346;2023-06-14T11:45:01;11.50;11.50;9.50
62599;PMS7003;48671;48.922;2.346;2023-06-14T11:47:38;12.50;12.50;10.50
62599;PMS7003;48671;48.922;2.346;2023-06-14T11:50:05;15.00;14.75;11.50
62599;PMS7003;48671;48.922;2.346;2023-06-14T11:52:33;14.50;14.50;11.25
62599;PMS7003;48671;48.922;2.346;2023-06-14T11:54:59;8.75;8.75;6.00
62599;PMS7003;48671;48.922;2.346;2023-06-14T11:57:24;12.75;12.75;10.75
62599;PMS7003;48671;48.922;2.346;2023-06-14T11:59:50;11.25;11.25;9.50
62599;PMS7003;48671;48.922;2.346;2023-06-14T12:02:17;14.00;14.00;10.00
62599;PMS7003;48671;48.922;2.346;2023-06-14T12:04:44;14.00;14.00;11.00
62599;PMS7003;48671;48.922;2.346;2023-06-14T12:07:12;14.00;14.00;11.25
62599;PMS7003;48671;48.922;2.346;2023-06-14T12:12:16;13.00;13.00;11.00
62599;PMS7003;48671;48.922;2.346;2023-06-14T12:14:42;2.75;2.75;0.00
62599;PMS7003;48671;48.922;2.346;2023-06-14T12:17:07;17.50;17.50;12.00
62599;PMS7003;48671;48.922;2.346;2023-06-14T12:19:33;15.25;15.25;11.50
62599;PMS7003;48671;48.922;2.346;2023-06-14T12:22:09;16.00;16.00;13.25
62599;PMS7003;48671;48.922;2.346;2023-06-14T12:24:35;13.00;13.00;12.00
62599;PMS7003;48671;48.922;2.346;2023-06-14T12:27:00;14.00;14.00;11.25
62599;PMS7003;48671;48.922;2.346;2023-06-14T12:29:28;13.50;13.50;10.75
62599;PMS7003;48671;48.922;2.346;2023-06-14T12:31:53;13.75;13.75;11.00
62599;PMS7003;48671;48.922;2.346;2023-06-14T12:34:21;14.25;14.25;11.75
62599;PMS7003;48671;48.922;2.346;2023-06-14T12:36:46;14.00;14.00;11.25
62599;PMS7003;48671;48.922;2.346;2023-06-14T12:39:12;14.00;14.00;11.00
62599;PMS7003;48671;48.922;2.346;2023-06-14T12:41:37;14.75;14.75;11.50
62599;PMS7003;48671;48.922;2.346;2023-06-14T12:44:03;13.00;13.00;11.00
62599;PMS7003;48671;48.922;2.346;2023-06-14T12:46:31;15.00;15.00;13.00
62599;PMS7003;48671;48.922;2.346;2023-06-14T12:49:00;11.25;11.25;9.75
62599;PMS7003;48671;48.922;2.346;2023-06-14T12:51:26;16.00;15.50;11.25
62599;PMS7003;48671;48.922;2.346;2023-06-14T12:53:51;12.75;12.75;10.00
62599;PMS7003;48671;48.922;2.346;2023-06-14T12:56:17;18.00;17.00;12.00
62599;PMS7003;48671;48.922;2.346;2023-06-14T12:58:42;14.50;14.50;11.50
62599;PMS7003;48671;48.922;2.346;2023-06-14T13:01:08;11.25;11.25;9.75
62599;PMS7003;48671;48.922;2.346;2023-06-14T13:03:33;12.50;12.50;10.00
62599;PMS7003;48671;48.922;2.346;2023-06-14T13:05:59;12.75;12.75;11.00
62599;PMS7003;48671;48.922;2.346;2023-06-14T13:08:26;14.50;14.50;11.00
62599;PMS7003;48671;48.922;2.346;2023-06-14T13:10:51;15.00;15.00;11.75
62599;PMS7003;48671;48.922;2.346;2023-06-14T13:13:16;12.25;12.25;11.00
62599;PMS7003;48671;48.922;2.346;2023-06-14T13:15:42;14.00;14.00;10.75
62599;PMS7003;48671;48.922;2.346;2023-06-14T13:18:08;13.25;13.25;10.50
62599;PMS7003;48671;48.922;2.346;2023-06-14T13:20:34;13.50;13.50;10.50
62599;PMS7003;48671;48.922;2.346;2023-06-14T13:22:59;15.50;15.50;13.00
62599;PMS7003;48671;48.922;2.346;2023-06-14T13:25:24;16.00;16.00;13.25
62599;PMS7003;48671;48.922;2.346;2023-06-14T13:27:50;12.25;12.25;11.00
62599;PMS7003;48671;48.922;2.346;2023-06-14T13:30:15;13.00;13.00;10.50
62599;PMS7003;48671;48.922;2.346;2023-06-14T13:32:41;13.25;13.25;11.00
62599;PMS7003;48671;48.922;2.346;2023-06-14T13:35:06;15.25;15.25;12.00
62599;PMS7003;48671;48.922;2.346;2023-06-14T13:37:31;13.00;13.00;10.00
62599;PMS7003;48671;48.922;2.346;2023-06-14T13:39:57;13.00;13.00;11.00
62599;PMS7003;48671;48.922;2.346;2023-06-14T13:42:22;12.25;12.25;11.00
62599;PMS7003;48671;48.922;2.346;2023-06-14T13:44:47;15.50;15.50;10.75
62599;PMS7003;48671;48.922;2.346;2023-06-14T13:47:13;12.50;12.50;11.00
62599;PMS7003;48671;48.922;2.346;2023-06-14T13:49:38;14.50;13.75;11.75
62599;PMS7003;48671;48.922;2.346;2023-06-14T13:52:03;11.25;11.25;9.50
62599;PMS7003;48671;48.922;2.346;2023-06-14T13:54:29;14.25;14.25;12.00
62599;PMS7003;48671;48.922;2.346;2023-06-14T13:56:54;16.75;16.75;12.50
62599;PMS7003;48671;48.922;2.346;2023-06-14T13:59:20;13.00;13.00;11.25
62599;PMS7003;48671;48.922;2.346;2023-06-14T14:01:45;14.50;14.50;11.50
62599;PMS7003;48671;48.922;2.346;2023-06-14T14:04:10;26.25;22.50;13.50